Sedan, KS (67361)

11:19 AM CST on February 20, 2018 (GMT -0600)
kansas flatland | | Change Station
Active Advisory: Winter Weather Advisory

Elev 778 ft 37.01 °N, 95.92 °W | Updated 2 minutes ago

Ice Pellets
Ice Pellets
31.1 °F
Feels Like 21 °F
N
13.5
Wind Variable Wind from WNW

Today
High -- | Low -- °F
--% Chance of Precip.
Yesterday
High -- | Low -- °F
Precip. -- in
Pressure 30.02 in
Visibility 3.0 miles
Clouds Mostly Cloudy 1000 ft
Mostly Cloudy 2400 ft
Overcast 4400 ft
Windchill 21 °F
Dew Point 31 °F
Humidity 99%
Rainfall 1.37 in
Snow Depth Not available.
7:07 AM 6:09 PM
Waxing Crescent, 23% visible
METAR KIDP 201655Z AUTO 35020G26KT 3SM -SN BR BKN010 BKN024 OVC044 00/M01 A3002 RMK AO2 P0014 T00021008
Pressure 30.02 in
Visibility 3.0 miles
Clouds Mostly Cloudy 1000 ft
Mostly Cloudy 2400 ft
Overcast 4400 ft
Windchill 21 °F
Dew Point 31 °F
Humidity 99%
Rainfall 1.37 in
Snow Depth Not available.
7:07 AM 6:09 PM
Waxing Crescent, 23% visible
METAR KIDP 201655Z AUTO 35020G26KT 3SM -SN BR BKN010 BKN024 OVC044 00/M01 A3002 RMK AO2 P0014 T00021008

Get Your Daily Forecast Email!

Thanks for signing up!

Be on the lookout for a verification email in your inbox.

You'll start receiving severe weather alerts in your inbox..

×

10-Day Weather Forecast

Almanac

Astronomy

Feb. 20, 2018 Rise Set
Actual Time
Civil Twilight
Nautical Twilight
Astronomical Twilight
Moon
Length of Visible Light
Length of Day
Tomorrow will be .
, % of the Moon is Illuminated

Today's Extremes

State Highs State Lows

Community

WunderPhotos

Category 6

Welcome to Category 6. This is the collective home for Weather Underground's featured writeups by Dr. Jeff Masters (right), Bob Henson (left), Chris Burt, and other regular contributors.

Nearby

Air Quality

  Air Quality AQ Index Pollutant
Not available.

Snow Depth

Station Depth Elevation

Earthquake Activity

City Distance Mag. Time & Date
Minimum magnitude displayed is 2.5.

Coastal Water Temperatures

Place Temperature

Stations

Nearby Weather Stations

Station Location Temp. Windchill Dew Point Humidity Wind Precip. Elev Updated Type
                   

Watches & Warnings

Winter Weather Advisory
Issued: 9:15 AM CST Feb. 20, 2018 – National Weather Service

... Winter Weather Advisory now in effect until 6 PM CST this
evening...

* what... freezing rain with sleet mixing in. Additional ice
accumulations of up to three tenths of an inch are expected.

* Where... Woodson, Allen, Elk, Wilson and Chautauqua counties.

* When... until 6 PM CST this evening.

* Additional details... power outages and tree damage are likely
due to the ice. Travel will be dangerous and nearly impossible.

Precautionary/preparedness actions...

A Winter Weather Advisory means that periods of freezing rain
will cause travel difficulties. Be prepared for slippery roads.
Slow down and use caution while driving. The latest Road
conditions for the state you are calling from can be obtained by
calling 5 1 1.